createdAt,value
2022-09-04T00:02:52.480Z,16.1
2022-09-04T00:08:39.341Z,16.2
2022-09-04T00:14:19.819Z,16.2
2022-09-04T00:20:00.259Z,16.1
2022-09-04T00:25:40.669Z,16.1
2022-09-04T00:31:21.086Z,16
2022-09-04T00:37:02.903Z,16
2022-09-04T00:42:43.011Z,16
2022-09-04T00:48:23.239Z,15.9
2022-09-04T00:54:04.323Z,15.8
2022-09-04T00:59:44.536Z,15.7
2022-09-04T01:05:25.653Z,15.7
2022-09-04T01:11:09.412Z,15.8
2022-09-04T01:16:50.027Z,15.8
2022-09-04T01:22:31.458Z,15.9
2022-09-04T01:28:11.903Z,15.8
2022-09-04T01:33:52.359Z,15.6
2022-09-04T01:39:32.529Z,15.6
2022-09-04T01:45:13.234Z,15.6
2022-09-04T01:50:57.445Z,15.6
2022-09-04T01:56:37.534Z,15.6
2022-09-04T02:02:17.580Z,15.5
2022-09-04T02:07:58.644Z,15.5
2022-09-04T02:13:38.856Z,15.4
2022-09-04T02:19:19.272Z,15.4
2022-09-04T02:24:59.461Z,15.4
2022-09-04T02:30:39.651Z,15.3
2022-09-04T02:36:20.162Z,15.2
2022-09-04T02:42:00.498Z,15.2
2022-09-04T02:47:40.821Z,15.3
2022-09-04T02:53:21.186Z,15.4
2022-09-04T02:59:01.593Z,15.6
2022-09-04T03:04:41.839Z,15.9
2022-09-04T03:10:22.079Z,16.1
2022-09-04T03:16:02.467Z,16.2
2022-09-04T03:21:43.972Z,16.4
2022-09-04T03:27:24.474Z,16.5
2022-09-04T03:33:04.575Z,16.6
2022-09-04T03:38:44.664Z,16.7
2022-09-04T03:44:25.128Z,16.7
2022-09-04T03:50:05.506Z,16.7
2022-09-04T03:55:45.669Z,16.8
2022-09-04T04:01:26.331Z,16.8
2022-09-04T04:07:07.181Z,16.8
2022-09-04T04:12:47.399Z,16.8
2022-09-04T04:18:30.499Z,16.8
2022-09-04T04:24:11.040Z,16.9
2022-09-04T04:29:51.194Z,16.8
2022-09-04T04:35:31.395Z,16.8
2022-09-04T04:41:11.771Z,16.9
2022-09-04T04:46:52.015Z,16.9
2022-09-04T04:52:33.001Z,16.9
2022-09-04T04:58:13.335Z,16.9
2022-09-04T05:03:53.688Z,16.9
2022-09-04T05:09:34.068Z,17
2022-09-04T05:15:14.298Z,17
2022-09-04T05:20:54.681Z,17.1
2022-09-04T05:26:35.182Z,17.2
2022-09-04T05:32:15.384Z,17.3
2022-09-04T05:37:55.954Z,17.5
2022-09-04T05:43:36.501Z,17.8
2022-09-04T05:49:17.172Z,18.9
2022-09-04T05:54:57.995Z,20.1
2022-09-04T06:00:38.530Z,20.9
2022-09-04T06:06:19.221Z,21.9
2022-09-04T06:12:00.215Z,22.7
2022-09-04T06:17:41.281Z,23.2
2022-09-04T06:23:21.796Z,23.5
2022-09-04T06:29:05.395Z,24.3
2022-09-04T06:34:46.494Z,24.8
2022-09-04T06:40:26.973Z,25.7
2022-09-04T06:46:07.270Z,26
2022-09-04T06:51:48.356Z,27.3
2022-09-04T06:57:29.762Z,28.2
2022-09-04T07:03:10.293Z,28.1
2022-09-04T07:08:50.609Z,28.5
2022-09-04T07:14:30.879Z,28.8
2022-09-04T07:20:11.191Z,29
2022-09-04T07:25:55.378Z,29
2022-09-04T07:31:35.958Z,29.4
2022-09-04T07:37:16.658Z,30.2
2022-09-04T07:42:58.655Z,30.6
2022-09-04T07:48:39.416Z,30.4
2022-09-04T07:54:22.448Z,30.5
2022-09-04T08:00:04.362Z,31.7
2022-09-04T08:05:44.099Z,29.6
2022-09-04T08:11:24.606Z,30.5
2022-09-04T08:17:05.663Z,30.5
2022-09-04T08:22:45.582Z,29.3
2022-09-04T08:28:26.138Z,30.4
2022-09-04T08:34:06.956Z,30.8
2022-09-04T08:39:47.234Z,31
2022-09-04T08:45:28.721Z,31.3
2022-09-04T08:51:22.061Z,31.7
2022-09-04T08:57:01.999Z,32.1
2022-09-04T09:02:41.480Z,29.9
2022-09-04T09:08:31.609Z,31.3
2022-09-04T09:14:13.182Z,31.9
2022-09-04T09:19:53.620Z,32.4
2022-09-04T09:25:33.325Z,32.1
2022-09-04T09:31:13.945Z,32.2
2022-09-04T09:36:56.055Z,31.1
2022-09-04T09:42:35.737Z,30.5
2022-09-04T09:48:16.063Z,31.3
2022-09-04T09:53:56.505Z,32.3
2022-09-04T09:59:38.209Z,32.4
2022-09-04T10:05:18.805Z,32.5
2022-09-04T10:10:59.251Z,31.9
2022-09-04T10:16:39.484Z,32.5
2022-09-04T10:22:20.501Z,32.8
2022-09-04T10:28:01.038Z,32.3
2022-09-04T10:33:41.325Z,30.1
2022-09-04T10:39:21.310Z,30.1
2022-09-04T10:45:02.385Z,31.3
2022-09-04T10:50:46.087Z,32.2
2022-09-04T10:56:28.262Z,30.8
2022-09-04T11:02:08.379Z,30.8
2022-09-04T11:07:50.602Z,33
2022-09-04T11:13:31.905Z,33.8
2022-09-04T11:24:15.294Z,33.1
2022-09-04T11:29:57.885Z,33.8
2022-09-04T11:35:38.059Z,34
2022-09-04T11:41:17.937Z,32
2022-09-04T11:46:58.499Z,31.2
2022-09-04T11:52:38.571Z,30.6
2022-09-04T11:58:18.356Z,30.5
2022-09-04T12:03:58.761Z,29.9
2022-09-04T12:09:39.638Z,29.5
2022-09-04T12:15:19.975Z,30.2
2022-09-04T12:21:04.014Z,31.5
2022-09-04T12:26:51.144Z,31.4
2022-09-04T12:32:45.462Z,30.9
2022-09-04T12:38:26.252Z,30.8
2022-09-04T12:44:06.356Z,31.2
2022-09-04T12:49:46.372Z,30.9
2022-09-04T12:55:26.541Z,30.2
2022-09-04T13:01:17.116Z,30.5
2022-09-04T13:06:58.388Z,30.4
2022-09-04T13:12:39.313Z,33.2
2022-09-04T13:18:20.858Z,35
2022-09-04T13:24:01.414Z,35.5
2022-09-04T13:29:47.469Z,34.7
2022-09-04T13:35:28.165Z,34
2022-09-04T13:41:08.624Z,35
2022-09-04T13:46:51.288Z,34.1
2022-09-04T13:52:38.183Z,30.3
2022-09-04T13:58:18.767Z,30
2022-09-04T14:04:00.183Z,30.4
2022-09-04T14:09:47.530Z,30.7
2022-09-04T14:15:28.244Z,31.2
2022-09-04T14:21:08.673Z,31.9
2022-09-04T14:26:53.036Z,32.6
2022-09-04T14:32:38.960Z,32.6
2022-09-04T14:38:27.687Z,32.5
2022-09-04T14:44:08.394Z,32.3
2022-09-04T14:49:48.196Z,31.8
2022-09-04T14:55:28.023Z,30.9
2022-09-04T15:01:08.019Z,29.4
2022-09-04T15:07:10.036Z,29.6
2022-09-04T15:12:52.653Z,29.7
2022-09-04T15:18:33.031Z,30.1
2022-09-04T15:24:13.796Z,29.6
2022-09-04T15:29:54.852Z,29.6
2022-09-04T15:35:44.111Z,29.4
2022-09-04T15:41:24.382Z,29.2
2022-09-04T15:47:05.216Z,29.2
2022-09-04T15:52:45.743Z,29
2022-09-04T15:58:25.999Z,28.9
2022-09-04T16:04:06.931Z,28.8
2022-09-04T16:09:47.589Z,28.7
2022-09-04T16:15:27.691Z,28.6
2022-09-04T16:21:08.230Z,28.1
2022-09-04T16:26:48.996Z,28.3
2022-09-04T16:32:29.092Z,28.1
2022-09-04T16:38:09.172Z,28
2022-09-04T16:43:49.378Z,27.9
2022-09-04T16:49:29.566Z,27.8
2022-09-04T16:55:09.736Z,27.7
2022-09-04T17:00:49.789Z,27.6
2022-09-04T17:06:29.981Z,27.5
2022-09-04T17:12:10.317Z,27.4
2022-09-04T17:17:58.412Z,27.4
2022-09-04T17:24:08.022Z,27.4
2022-09-04T17:40:09.007Z,27.8
2022-09-04T17:47:53.872Z,27.6
2022-09-04T17:53:34.777Z,26.7
2022-09-04T17:59:15.196Z,26.2
2022-09-04T18:04:55.281Z,25.9
2022-09-04T18:10:36.058Z,25.6
2022-09-04T18:16:23.348Z,25.4
2022-09-04T18:22:07.821Z,25.2
2022-09-04T18:28:14.553Z,25
2022-09-04T18:37:13.639Z,24.6
2022-09-04T18:39:54.793Z,24.4
2022-09-04T18:50:42.634Z,23.9
2022-09-04T18:57:06.537Z,24.2
2022-09-04T19:02:47.504Z,23.5
2022-09-04T19:08:34.293Z,23
2022-09-04T19:14:14.408Z,22.7
2022-09-04T19:19:54.443Z,22.4
2022-09-04T19:25:41.848Z,22
2022-09-04T19:31:35.433Z,21.9
2022-09-04T19:37:24.680Z,21.7
2022-09-04T19:53:20.829Z,22.7
2022-09-04T19:58:33.675Z,21.9
2022-09-04T20:04:14.063Z,21.4
2022-09-04T20:09:58.205Z,21.2
2022-09-04T20:15:38.728Z,20.9
2022-09-04T20:21:19.340Z,20.7
2022-09-04T20:27:00.017Z,20.6
2022-09-04T20:32:40.694Z,20.5
2022-09-04T20:38:36.531Z,20.5
2022-09-04T20:44:23.291Z,20.3
2022-09-04T20:52:47.992Z,20.1
2022-09-04T21:03:06.963Z,20.6
2022-09-04T21:09:14.036Z,20.8
2022-09-04T21:14:53.975Z,20.1
2022-09-04T21:20:38.945Z,19.9
2022-09-04T21:26:44.531Z,19.8
2022-09-04T21:32:27.059Z,19.6
2022-09-04T21:38:10.218Z,19.5
2022-09-04T21:43:50.472Z,19.5
2022-09-04T21:49:30.878Z,19.4
2022-09-04T21:56:53.447Z,19.3
2022-09-04T22:10:25.048Z,20.1
2022-09-04T22:19:39.859Z,20
2022-09-04T22:25:19.609Z,19.4
2022-09-04T22:30:59.815Z,19
2022-09-04T22:36:40.741Z,18.8
2022-09-04T22:42:20.962Z,18.6
2022-09-04T22:48:01.248Z,18.4
2022-09-04T22:53:41.458Z,18.2
2022-09-04T22:59:26.405Z,18.1
2022-09-04T23:05:11.240Z,18.1
2022-09-04T23:13:55.975Z,18
2022-09-04T23:21:36.075Z,18.6
2022-09-04T23:32:46.156Z,19.1
2022-09-04T23:38:26.168Z,18.8
2022-09-04T23:44:06.526Z,18.9
2022-09-04T23:49:47.086Z,19.1
2022-09-04T23:55:27.577Z,19.2
